Time;durP1;ratioP1;P1;durP2;ratioP2;P2;SDS_P1;SDS_P2;PMS_P1;PMS_P2;Temp;Humidity;BMP_temperature;BMP_pressure;BME280_temperature;BME280_humidity;BME280_pressure;Samples;Min_cycle;Max_cycle;Signal;HPM_P1;HPM_P2
2024/01/20 00:00:56;;;;;;;9.93;4.30;;;;;;;;;;5046900;28;20293;-75
2024/01/20 00:03:22;;;;;;;15.53;4.70;;;;;;;;;;5060977;28;20212;-75
2024/01/20 00:05:48;;;;;;;9.07;4.00;;;;;;;;;;5076373;28;20205;-74
2024/01/20 00:08:14;;;;;;;10.90;4.23;;;;;;;;;;5077727;28;20244;-74
2024/01/20 00:10:40;;;;;;;8.80;4.33;;;;;;;;;;5079431;28;20287;-73
2024/01/20 00:13:07;;;;;;;13.10;4.30;;;;;;;;;;5076818;28;20371;-75
2024/01/20 00:15:32;;;;;;;6.37;3.87;;;;;;;;;;5081248;28;20210;-75
2024/01/20 00:17:58;;;;;;;7.33;4.43;;;;;;;;;;5078062;28;20546;-73
2024/01/20 00:20:24;;;;;;;8.67;3.93;;;;;;;;;;5076578;28;20202;-74
2024/01/20 00:22:52;;;;;;;9.50;4.43;;;;;;;;;;5074602;28;20639;-73
2024/01/20 00:25:18;;;;;;;11.83;4.03;;;;;;;;;;5083808;28;20215;-74
2024/01/20 00:27:43;;;;;;;10.20;4.47;;;;;;;;;;5077422;28;20208;-74
2024/01/20 00:30:10;;;;;;;14.17;4.50;;;;;;;;;;5058305;28;20181;-76
2024/01/20 00:32:37;;;;;;;8.50;3.63;;;;;;;;;;5078997;28;20203;-77
2024/01/20 00:35:03;;;;;;;11.33;4.73;;;;;;;;;;5076706;28;20218;-74
2024/01/20 00:37:29;;;;;;;9.13;4.13;;;;;;;;;;5080384;28;20297;-74
2024/01/20 00:39:55;;;;;;;9.40;4.43;;;;;;;;;;5072356;28;20271;-75
2024/01/20 00:42:21;;;;;;;9.67;4.57;;;;;;;;;;5081553;28;20209;-74
2024/01/20 00:44:47;;;;;;;14.40;4.40;;;;;;;;;;5078276;28;20179;-73
2024/01/20 00:47:13;;;;;;;8.43;4.03;;;;;;;;;;5074707;28;20660;-75
2024/01/20 00:49:39;;;;;;;7.60;3.77;;;;;;;;;;5079636;28;20228;-74
2024/01/20 00:52:06;;;;;;;6.50;3.87;;;;;;;;;;5079130;28;20222;-77
2024/01/20 00:54:32;;;;;;;10.93;4.40;;;;;;;;;;5078233;28;20213;-74
2024/01/20 00:56:58;;;;;;;7.57;3.57;;;;;;;;;;5077585;28;20179;-74
2024/01/20 00:59:24;;;;;;;9.23;4.67;;;;;;;;;;5076682;28;20207;-75
2024/01/20 01:01:50;;;;;;;9.20;4.53;;;;;;;;;;5080341;28;20213;-74
2024/01/20 01:04:16;;;;;;;17.37;4.97;;;;;;;;;;5079396;28;20255;-75
2024/01/20 01:06:42;;;;;;;13.27;4.37;;;;;;;;;;5077285;28;20725;-75
2024/01/20 01:09:08;;;;;;;10.17;4.30;;;;;;;;;;5077258;28;20213;-74
2024/01/20 01:11:34;;;;;;;10.90;3.83;;;;;;;;;;5060230;28;20581;-75
2024/01/20 01:14:00;;;;;;;8.70;4.03;;;;;;;;;;5075859;28;20217;-74
2024/01/20 01:16:26;;;;;;;10.40;4.73;;;;;;;;;;5079700;28;20742;-74
2024/01/20 01:18:52;;;;;;;9.33;4.50;;;;;;;;;;5072890;28;20210;-74
2024/01/20 01:21:18;;;;;;;12.13;4.23;;;;;;;;;;5058569;28;20264;-73
2024/01/20 01:23:44;;;;;;;17.13;5.20;;;;;;;;;;5078555;28;20222;-74
2024/01/20 01:26:10;;;;;;;14.40;4.80;;;;;;;;;;5075344;28;20974;-74
2024/01/20 01:28:36;;;;;;;8.07;4.60;;;;;;;;;;5074906;28;20212;-74
2024/01/20 01:31:02;;;;;;;11.40;4.50;;;;;;;;;;5079237;28;20732;-74
2024/01/20 01:33:28;;;;;;;7.33;4.67;;;;;;;;;;5070602;28;20195;-73
2024/01/20 01:35:54;;;;;;;7.53;3.90;;;;;;;;;;5060058;28;20793;-75
2024/01/20 01:38:20;;;;;;;8.43;3.80;;;;;;;;;;5075911;28;20214;-74
2024/01/20 01:40:46;;;;;;;12.27;4.33;;;;;;;;;;5079141;28;20216;-74
2024/01/20 01:43:12;;;;;;;10.27;4.50;;;;;;;;;;5077362;28;20219;-74
2024/01/20 01:45:38;;;;;;;8.43;5.10;;;;;;;;;;5073054;28;20269;-74
2024/01/20 01:48:04;;;;;;;14.03;5.60;;;;;;;;;;5076375;28;20189;-74
2024/01/20 01:50:30;;;;;;;8.00;4.43;;;;;;;;;;5064094;28;20233;-75
2024/01/20 01:52:56;;;;;;;10.77;5.03;;;;;;;;;;5052843;28;20265;-75
2024/01/20 01:55:23;;;;;;;12.00;4.93;;;;;;;;;;5081157;28;20242;-74
2024/01/20 01:57:52;;;;;;;11.30;4.80;;;;;;;;;;5075244;28;20213;-74
2024/01/20 02:00:18;;;;;;;14.70;5.23;;;;;;;;;;5051399;28;20178;-74
2024/01/20 02:02:44;;;;;;;12.93;5.03;;;;;;;;;;5078618;28;20190;-74
2024/01/20 02:05:10;;;;;;;15.07;5.57;;;;;;;;;;5072208;28;20727;-74
2024/01/20 02:07:38;;;;;;;10.33;4.83;;;;;;;;;;5079373;28;20223;-74
2024/01/20 02:10:07;;;;;;;15.13;5.60;;;;;;;;;;5075269;28;20210;-74
2024/01/20 02:12:34;;;;;;;9.83;4.83;;;;;;;;;;5076565;28;20218;-75
2024/01/20 02:15:00;;;;;;;12.27;5.37;;;;;;;;;;5073996;28;20193;-74
2024/01/20 02:17:26;;;;;;;13.00;5.43;;;;;;;;;;5072254;28;20241;-74
2024/01/20 02:19:52;;;;;;;12.53;5.53;;;;;;;;;;5078890;28;20237;-74
2024/01/20 02:22:18;;;;;;;9.40;4.97;;;;;;;;;;5076718;28;20705;-74
2024/01/20 02:24:47;;;;;;;14.00;5.50;;;;;;;;;;5075939;28;20206;-74
2024/01/20 02:27:13;;;;;;;13.00;5.17;;;;;;;;;;5076152;28;20192;-74
2024/01/20 02:29:39;;;;;;;11.27;5.67;;;;;;;;;;5078740;28;20255;-73
2024/01/20 02:32:05;;;;;;;8.93;4.77;;;;;;;;;;5057570;28;20216;-74
2024/01/20 02:34:32;;;;;;;10.37;5.00;;;;;;;;;;5052851;28;20213;-74
2024/01/20 02:36:58;;;;;;;11.73;5.13;;;;;;;;;;5057218;28;20756;-73
2024/01/20 02:39:24;;;;;;;14.13;6.13;;;;;;;;;;5076425;28;20240;-74
2024/01/20 02:41:50;;;;;;;12.03;5.80;;;;;;;;;;5078880;28;20261;-75
2024/01/20 02:44:16;;;;;;;8.63;5.00;;;;;;;;;;5079909;28;20232;-74
2024/01/20 02:46:42;;;;;;;17.73;5.60;;;;;;;;;;5066009;28;20220;-74
2024/01/20 02:49:08;;;;;;;11.03;5.90;;;;;;;;;;5081081;28;20561;-74
2024/01/20 02:51:34;;;;;;;12.90;6.23;;;;;;;;;;5080763;28;20294;-75
2024/01/20 02:54:00;;;;;;;13.53;5.57;;;;;;;;;;5080792;28;20189;-73
2024/01/20 02:56:26;;;;;;;13.77;5.83;;;;;;;;;;5079564;28;20206;-75
2024/01/20 02:58:52;;;;;;;16.80;6.57;;;;;;;;;;5057784;28;20214;-75
2024/01/20 03:01:18;;;;;;;11.97;5.40;;;;;;;;;;5080682;28;20717;-75
2024/01/20 03:03:45;;;;;;;11.83;5.97;;;;;;;;;;5078860;28;20207;-74
2024/01/20 03:06:11;;;;;;;11.77;6.07;;;;;;;;;;5075273;28;20198;-74
2024/01/20 03:08:37;;;;;;;13.10;5.67;;;;;;;;;;5061626;28;20194;-74
2024/01/20 03:11:03;;;;;;;12.73;5.57;;;;;;;;;;5077713;28;20216;-74
2024/01/20 03:13:29;;;;;;;11.47;5.80;;;;;;;;;;5081027;28;20202;-74
2024/01/20 03:15:55;;;;;;;9.73;5.33;;;;;;;;;;5080620;28;20221;-75
2024/01/20 03:18:21;;;;;;;10.77;5.67;;;;;;;;;;5080676;28;20178;-74
2024/01/20 03:20:47;;;;;;;11.63;6.17;;;;;;;;;;5074821;28;20390;-75
2024/01/20 03:23:13;;;;;;;10.90;6.70;;;;;;;;;;5064184;28;20213;-75
2024/01/20 03:25:39;;;;;;;16.57;6.50;;;;;;;;;;5083550;28;20247;-74
2024/01/20 03:28:05;;;;;;;10.13;5.50;;;;;;;;;;5079618;28;20342;-75
2024/01/20 03:30:31;;;;;;;9.97;5.43;;;;;;;;;;5056046;28;20563;-75
2024/01/20 03:32:57;;;;;;;10.60;5.80;;;;;;;;;;5059172;28;20205;-75
2024/01/20 03:35:24;;;;;;;10.63;5.40;;;;;;;;;;5078284;28;20207;-75
2024/01/20 03:37:50;;;;;;;11.97;5.93;;;;;;;;;;5076124;28;20285;-75
2024/01/20 03:40:16;;;;;;;10.73;5.33;;;;;;;;;;5075644;28;20206;-75
2024/01/20 03:42:42;;;;;;;12.40;5.37;;;;;;;;;;5075773;28;20305;-75
2024/01/20 03:45:08;;;;;;;11.47;5.70;;;;;;;;;;5072468;28;20277;-75
2024/01/20 03:47:34;;;;;;;12.33;6.20;;;;;;;;;;5078699;28;20551;-75
2024/01/20 03:50:00;;;;;;;15.50;6.47;;;;;;;;;;5075349;28;20213;-74
2024/01/20 03:52:26;;;;;;;14.33;6.30;;;;;;;;;;5073782;28;20225;-74
2024/01/20 03:54:52;;;;;;;11.33;5.13;;;;;;;;;;5076891;28;20701;-75
2024/01/20 03:57:18;;;;;;;14.83;6.37;;;;;;;;;;5070143;28;20171;-75
2024/01/20 03:59:44;;;;;;;12.53;6.03;;;;;;;;;;5076702;28;20174;-73
2024/01/20 04:02:11;;;;;;;14.57;6.50;;;;;;;;;;5077161;28;20214;-74
2024/01/20 04:04:37;;;;;;;13.80;6.30;;;;;;;;;;5077713;28;20195;-74
2024/01/20 04:07:04;;;;;;;17.13;7.63;;;;;;;;;;5078707;28;20218;-74
2024/01/20 04:09:30;;;;;;;15.77;5.17;;;;;;;;;;5051051;28;20211;-74
2024/01/20 04:11:56;;;;;;;14.77;6.10;;;;;;;;;;5079572;28;20207;-74
2024/01/20 04:14:22;;;;;;;16.87;7.07;;;;;;;;;;5072507;28;20249;-75
2024/01/20 04:16:48;;;;;;;15.00;5.50;;;;;;;;;;5071965;28;20620;-74
2024/01/20 04:19:14;;;;;;;9.53;5.53;;;;;;;;;;5072422;28;20627;-74
2024/01/20 04:21:42;;;;;;;15.90;6.23;;;;;;;;;;5043487;28;20245;-74
2024/01/20 04:24:08;;;;;;;9.93;6.00;;;;;;;;;;5076284;28;20174;-74
2024/01/20 04:26:34;;;;;;;10.63;6.03;;;;;;;;;;5078873;28;20201;-74
2024/01/20 04:29:01;;;;;;;10.80;6.60;;;;;;;;;;5074933;28;20243;-73
2024/01/20 04:31:27;;;;;;;11.30;5.57;;;;;;;;;;5042762;28;20585;-73
2024/01/20 04:33:53;;;;;;;15.47;6.73;;;;;;;;;;5079381;28;20221;-74
2024/01/20 04:36:19;;;;;;;12.23;6.30;;;;;;;;;;5069050;28;20335;-74
2024/01/20 04:38:45;;;;;;;10.80;5.53;;;;;;;;;;5059398;28;20754;-74
2024/01/20 04:41:11;;;;;;;10.03;6.03;;;;;;;;;;5080379;28;20207;-74
2024/01/20 04:43:37;;;;;;;10.67;5.87;;;;;;;;;;5084199;28;20218;-73
2024/01/20 04:46:04;;;;;;;12.57;6.03;;;;;;;;;;5085796;28;20584;-75
2024/01/20 04:48:31;;;;;;;12.67;5.70;;;;;;;;;;5074858;28;20216;-73
2024/01/20 04:50:57;;;;;;;9.77;5.30;;;;;;;;;;5081598;28;20224;-75
2024/01/20 04:53:23;;;;;;;13.07;7.07;;;;;;;;;;5076904;28;20225;-75
2024/01/20 04:55:49;;;;;;;13.07;6.33;;;;;;;;;;5071925;28;20290;-74
2024/01/20 04:58:15;;;;;;;12.83;6.17;;;;;;;;;;5066850;28;20254;-75
2024/01/20 05:00:41;;;;;;;14.50;6.68;;;;;;;;;;5067151;28;20398;-75
2024/01/20 05:03:07;;;;;;;10.33;5.93;;;;;;;;;;5068205;28;20859;-75
2024/01/20 05:05:33;;;;;;;13.27;6.10;;;;;;;;;;5069131;28;20210;-74
2024/01/20 05:07:59;;;;;;;10.83;5.93;;;;;;;;;;5076890;28;20230;-74
2024/01/20 05:10:25;;;;;;;12.17;6.20;;;;;;;;;;5068488;28;20207;-75
2024/01/20 05:12:51;;;;;;;12.23;7.17;;;;;;;;;;5078884;28;20231;-74
2024/01/20 05:15:17;;;;;;;17.93;7.13;;;;;;;;;;5070920;28;20596;-74
2024/01/20 05:17:44;;;;;;;17.43;5.63;;;;;;;;;;5056384;28;20189;-74
2024/01/20 05:20:13;;;;;;;11.40;6.03;;;;;;;;;;5080060;28;20209;-74
2024/01/20 05:22:39;;;;;;;16.80;6.40;;;;;;;;;;5062158;28;20790;-74
2024/01/20 05:25:06;;;;;;;15.47;7.47;;;;;;;;;;5075451;28;20214;-75
2024/01/20 05:27:32;;;;;;;13.23;6.23;;;;;;;;;;5075467;28;20209;-74
2024/01/20 05:29:58;;;;;;;14.03;6.77;;;;;;;;;;5049957;28;20316;-75
2024/01/20 05:32:24;;;;;;;10.93;5.80;;;;;;;;;;5075711;28;20440;-76
2024/01/20 05:34:50;;;;;;;11.43;5.40;;;;;;;;;;5073302;28;20293;-74
2024/01/20 05:37:16;;;;;;;12.43;6.40;;;;;;;;;;5077851;28;20735;-75
2024/01/20 05:39:42;;;;;;;12.03;6.53;;;;;;;;;;5078605;28;20220;-75
2024/01/20 05:42:08;;;;;;;12.90;5.93;;;;;;;;;;5076428;28;20198;-74
2024/01/20 05:44:34;;;;;;;15.67;6.37;;;;;;;;;;5077446;28;20251;-75
2024/01/20 05:47:00;;;;;;;10.30;6.30;;;;;;;;;;5076672;28;20272;-75
2024/01/20 05:49:26;;;;;;;10.57;6.60;;;;;;;;;;5075861;28;20217;-75
2024/01/20 05:51:52;;;;;;;15.80;6.40;;;;;;;;;;5079446;28;20313;-75
2024/01/20 05:54:18;;;;;;;12.57;6.47;;;;;;;;;;5076626;28;20720;-74
2024/01/20 05:56:44;;;;;;;16.53;6.77;;;;;;;;;;5078473;28;20178;-73
2024/01/20 05:59:10;;;;;;;12.07;6.33;;;;;;;;;;5074676;28;20199;-74
2024/01/20 06:01:36;;;;;;;14.60;5.90;;;;;;;;;;5074736;28;20238;-74
2024/01/20 06:04:04;;;;;;;18.07;6.77;;;;;;;;;;5078977;28;20284;-75
2024/01/20 06:06:30;;;;;;;10.63;5.73;;;;;;;;;;5075801;28;20605;-75
2024/01/20 06:08:56;;;;;;;12.53;5.97;;;;;;;;;;5078400;28;20185;-76
2024/01/20 06:11:24;;;;;;;15.37;6.50;;;;;;;;;;5074974;28;20214;-75
2024/01/20 06:13:50;;;;;;;14.30;7.00;;;;;;;;;;5076119;28;20215;-75
2024/01/20 06:16:16;;;;;;;12.63;6.63;;;;;;;;;;5064556;28;20219;-75
2024/01/20 06:18:42;;;;;;;13.27;6.27;;;;;;;;;;5077517;28;20672;-75
2024/01/20 06:21:08;;;;;;;10.23;6.23;;;;;;;;;;5064292;28;20198;-75
2024/01/20 06:23:34;;;;;;;14.63;6.20;;;;;;;;;;5074447;28;20690;-75
2024/01/20 06:26:00;;;;;;;13.73;6.13;;;;;;;;;;5075872;28;20244;-75
2024/01/20 06:28:26;;;;;;;15.50;6.90;;;;;;;;;;5076331;28;20207;-75
2024/01/20 06:30:53;;;;;;;11.53;5.97;;;;;;;;;;5077137;28;21014;-75
2024/01/20 06:33:19;;;;;;;13.53;6.67;;;;;;;;;;5041436;28;20293;-75
2024/01/20 06:35:45;;;;;;;11.37;5.80;;;;;;;;;;5077084;28;20171;-74
2024/01/20 06:38:11;;;;;;;14.67;7.17;;;;;;;;;;5076503;28;20707;-75
2024/01/20 06:40:37;;;;;;;10.87;6.97;;;;;;;;;;5056179;28;20214;-75
2024/01/20 06:43:03;;;;;;;11.30;5.40;;;;;;;;;;5078388;28;20221;-75
2024/01/20 06:45:33;;;;;;;18.13;6.67;;;;;;;;;;5074508;28;20683;-74
2024/01/20 06:48:00;;;;;;;12.97;7.30;;;;;;;;;;5071251;28;20177;-74
2024/01/20 06:50:26;;;;;;;15.03;6.37;;;;;;;;;;5071065;28;20213;-75
2024/01/20 06:52:52;;;;;;;14.67;6.73;;;;;;;;;;5066155;28;20218;-75
2024/01/20 06:55:18;;;;;;;11.20;6.27;;;;;;;;;;5075818;28;20297;-74
2024/01/20 06:57:43;;;;;;;14.40;6.97;;;;;;;;;;5076200;28;20298;-73
2024/01/20 07:00:10;;;;;;;15.10;7.40;;;;;;;;;;5074473;28;20182;-76
2024/01/20 07:02:36;;;;;;;16.20;7.23;;;;;;;;;;5077033;28;20195;-72
2024/01/20 07:05:02;;;;;;;9.97;6.13;;;;;;;;;;5074160;28;20204;-75
2024/01/20 07:07:28;;;;;;;12.80;6.20;;;;;;;;;;5074717;28;20210;-73
2024/01/20 07:09:54;;;;;;;13.20;6.80;;;;;;;;;;5075927;28;20224;-75
2024/01/20 07:12:21;;;;;;;16.17;6.27;;;;;;;;;;5075132;28;20217;-75
2024/01/20 07:14:47;;;;;;;11.77;6.97;;;;;;;;;;5073720;28;20238;-75
2024/01/20 07:17:13;;;;;;;13.93;7.07;;;;;;;;;;5076453;28;20218;-75
2024/01/20 07:19:39;;;;;;;13.00;6.40;;;;;;;;;;5074036;28;20751;-76
2024/01/20 07:22:05;;;;;;;15.87;6.90;;;;;;;;;;5077314;28;20215;-75
2024/01/20 07:24:31;;;;;;;15.37;6.93;;;;;;;;;;5072962;28;20222;-75
2024/01/20 07:26:57;;;;;;;13.30;7.43;;;;;;;;;;5074922;28;20605;-74
2024/01/20 07:29:24;;;;;;;15.97;7.37;;;;;;;;;;5081699;28;20228;-74
2024/01/20 07:31:53;;;;;;;18.40;6.63;;;;;;;;;;5078188;28;20235;-75
2024/01/20 07:34:19;;;;;;;14.97;7.07;;;;;;;;;;5081444;28;20212;-74
2024/01/20 07:36:45;;;;;;;14.93;7.20;;;;;;;;;;5079446;28;20530;-75
2024/01/20 07:39:11;;;;;;;13.47;7.00;;;;;;;;;;5078605;28;20237;-75
2024/01/20 07:41:37;;;;;;;14.87;7.03;;;;;;;;;;5079887;28;20179;-75
2024/01/20 07:44:03;;;;;;;16.37;7.33;;;;;;;;;;5081622;28;20224;-75
2024/01/20 07:46:29;;;;;;;14.67;7.17;;;;;;;;;;5077992;28;20743;-75
2024/01/20 07:48:55;;;;;;;13.63;6.97;;;;;;;;;;5080158;28;20218;-76
2024/01/20 07:51:21;;;;;;;14.37;6.97;;;;;;;;;;5078311;28;20292;-74
2024/01/20 07:53:47;;;;;;;13.93;7.07;;;;;;;;;;5078391;28;20558;-75
2024/01/20 07:56:15;;;;;;;14.77;6.60;;;;;;;;;;5080370;28;20292;-75
2024/01/20 07:58:41;;;;;;;13.80;7.27;;;;;;;;;;5077219;28;20744;-75
2024/01/20 08:01:07;;;;;;;18.20;6.67;;;;;;;;;;5081582;28;20203;-75
2024/01/20 08:03:33;;;;;;;11.60;6.47;;;;;;;;;;5077380;28;20222;-75
2024/01/20 08:06:00;;;;;;;17.43;7.13;;;;;;;;;;5079467;28;20190;-75
2024/01/20 08:08:26;;;;;;;15.73;6.23;;;;;;;;;;5079486;28;21082;-75
2024/01/20 08:10:52;;;;;;;14.63;6.97;;;;;;;;;;5076834;28;20216;-75
2024/01/20 08:13:19;;;;;;;12.63;7.10;;;;;;;;;;5063243;28;20229;-74
2024/01/20 08:15:45;;;;;;;12.90;7.03;;;;;;;;;;5078382;28;20214;-74
2024/01/20 08:18:11;;;;;;;18.20;7.80;;;;;;;;;;5077769;28;20525;-74
2024/01/20 08:20:37;;;;;;;12.93;7.40;;;;;;;;;;5078061;28;20175;-75
2024/01/20 08:23:03;;;;;;;18.87;7.37;;;;;;;;;;5082024;28;20218;-74
2024/01/20 08:25:29;;;;;;;10.80;6.60;;;;;;;;;;5077276;28;20287;-74
2024/01/20 08:27:55;;;;;;;20.20;9.23;;;;;;;;;;5079036;28;20268;-74
2024/01/20 08:30:21;;;;;;;13.03;6.87;;;;;;;;;;5075141;28;20557;-74
2024/01/20 08:32:47;;;;;;;13.97;7.03;;;;;;;;;;5076862;28;20200;-75
2024/01/20 08:35:13;;;;;;;13.77;7.13;;;;;;;;;;5080512;28;20692;-75
2024/01/20 08:37:39;;;;;;;14.83;6.13;;;;;;;;;;5058458;28;20239;-73
2024/01/20 08:40:05;;;;;;;15.67;6.53;;;;;;;;;;5078660;28;20202;-74
2024/01/20 08:42:31;;;;;;;14.47;6.23;;;;;;;;;;5079716;28;20273;-74
2024/01/20 08:44:57;;;;;;;16.73;6.43;;;;;;;;;;5074131;28;20312;-75
2024/01/20 08:47:23;;;;;;;13.70;6.90;;;;;;;;;;5077620;28;20218;-75
2024/01/20 08:49:51;;;;;;;12.27;6.67;;;;;;;;;;5075563;28;20293;-74
2024/01/20 08:52:17;;;;;;;13.73;6.57;;;;;;;;;;5080149;28;20340;-75
2024/01/20 08:54:43;;;;;;;16.83;6.80;;;;;;;;;;5075003;28;20215;-75
2024/01/20 08:57:09;;;;;;;9.47;5.93;;;;;;;;;;5077806;28;20205;-74
2024/01/20 08:59:35;;;;;;;11.20;6.10;;;;;;;;;;5077781;28;20249;-75
2024/01/20 09:02:03;;;;;;;11.83;5.90;;;;;;;;;;5085149;28;20583;-76
2024/01/20 09:04:29;;;;;;;11.13;6.90;;;;;;;;;;5072543;28;20206;-75
2024/01/20 09:06:55;;;;;;;14.90;6.33;;;;;;;;;;5077577;28;20620;-74
2024/01/20 09:09:21;;;;;;;12.00;5.33;;;;;;;;;;5077667;28;20185;-75
2024/01/20 09:11:47;;;;;;;11.67;5.50;;;;;;;;;;5074730;28;20582;-76
2024/01/20 09:14:14;;;;;;;11.60;5.47;;;;;;;;;;5061805;28;20645;-75
2024/01/20 09:16:40;;;;;;;10.07;5.53;;;;;;;;;;5075454;28;20218;-74
2024/01/20 09:19:06;;;;;;;13.07;6.43;;;;;;;;;;5059328;28;20204;-76
2024/01/20 09:21:32;;;;;;;12.87;6.77;;;;;;;;;;5078570;28;20680;-75
2024/01/20 09:23:59;;;;;;;12.93;6.50;;;;;;;;;;5077343;28;20505;-74
2024/01/20 09:26:25;;;;;;;10.77;6.03;;;;;;;;;;5079088;28;20208;-75
2024/01/20 09:28:51;;;;;;;13.70;5.80;;;;;;;;;;5074912;28;20290;-76
2024/01/20 09:31:17;;;;;;;10.47;5.20;;;;;;;;;;5077358;28;20236;-75
2024/01/20 09:33:45;;;;;;;11.87;5.67;;;;;;;;;;5074722;28;20214;-75
2024/01/20 09:36:11;;;;;;;12.87;6.47;;;;;;;;;;5073926;28;20543;-75
2024/01/20 09:38:37;;;;;;;10.03;5.47;;;;;;;;;;5076777;28;20304;-75
2024/01/20 09:41:09;;;;;;;11.00;5.03;;;;;;;;;;5077428;28;20214;-75
2024/01/20 09:43:35;;;;;;;12.90;6.80;;;;;;;;;;5072728;28;20210;-75
2024/01/20 09:46:01;;;;;;;11.33;5.50;;;;;;;;;;5077719;28;20215;-75
2024/01/20 09:48:27;;;;;;;15.97;6.33;;;;;;;;;;5071333;28;20623;-75
2024/01/20 09:50:53;;;;;;;14.17;6.73;;;;;;;;;;5075977;28;20265;-75
2024/01/20 09:53:19;;;;;;;16.57;6.67;;;;;;;;;;5078354;28;20221;-75
2024/01/20 09:55:46;;;;;;;12.57;6.60;;;;;;;;;;5075235;28;20202;-75
2024/01/20 09:58:12;;;;;;;10.63;5.90;;;;;;;;;;5077293;28;20204;-75
2024/01/20 10:00:39;;;;;;;13.17;6.23;;;;;;;;;;5062930;28;20257;-75
2024/01/20 10:03:06;;;;;;;12.63;5.73;;;;;;;;;;5045259;28;20200;-74
2024/01/20 10:05:33;;;;;;;17.87;7.60;;;;;;;;;;5076485;28;20226;-75
2024/01/20 10:07:59;;;;;;;17.00;6.17;;;;;;;;;;5056515;28;20766;-75
2024/01/20 10:10:26;;;;;;;10.87;6.10;;;;;;;;;;5078125;28;20215;-75
2024/01/20 10:12:52;;;;;;;10.97;5.90;;;;;;;;;;5042221;28;20213;-74
2024/01/20 10:15:22;;;;;;;11.60;6.37;;;;;;;;;;5075901;28;20779;-73
2024/01/20 10:17:48;;;;;;;11.77;6.50;;;;;;;;;;5076871;28;20563;-74
2024/01/20 10:20:21;;;;;;;17.87;6.47;;;;;;;;;;5077089;28;20203;-74
2024/01/20 10:22:48;;;;;;;14.07;6.67;;;;;;;;;;5072412;28;20223;-74
2024/01/20 10:25:18;;;;;;;11.63;7.17;;;;;;;;;;5077520;28;20225;-75
2024/01/20 10:27:45;;;;;;;8.77;5.27;;;;;;;;;;5071856;28;20560;-75
2024/01/20 10:30:12;;;;;;;15.13;6.17;;;;;;;;;;5072519;28;20182;-74
2024/01/20 10:32:40;;;;;;;9.27;5.50;;;;;;;;;;5077393;28;20196;-74
2024/01/20 10:35:08;;;;;;;10.40;5.83;;;;;;;;;;5074282;28;20238;-74
2024/01/20 10:37:34;;;;;;;13.10;5.60;;;;;;;;;;5078222;28;20205;-73
2024/01/20 10:40:03;;;;;;;10.57;5.73;;;;;;;;;;5075859;28;20214;-75
2024/01/20 10:42:32;;;;;;;10.93;5.23;;;;;;;;;;5071175;28;20221;-73
2024/01/20 10:45:04;;;;;;;11.77;5.93;;;;;;;;;;5074172;28;20199;-75
2024/01/20 10:47:36;;;;;;;14.13;5.83;;;;;;;;;;5075532;28;20301;-75
2024/01/20 10:50:04;;;;;;;11.73;5.67;;;;;;;;;;5074114;28;20767;-74
2024/01/20 10:52:32;;;;;;;11.63;5.63;;;;;;;;;;5077335;28;20807;-75
2024/01/20 10:54:59;;;;;;;10.57;5.63;;;;;;;;;;5071736;28;20253;-74
2024/01/20 10:57:25;;;;;;;8.40;5.27;;;;;;;;;;5078558;28;20177;-74
2024/01/20 10:59:51;;;;;;;11.60;6.23;;;;;;;;;;5072009;28;20586;-74
2024/01/20 11:02:17;;;;;;;12.33;6.63;;;;;;;;;;5075741;28;20282;-74
2024/01/20 11:04:44;;;;;;;15.70;6.30;;;;;;;;;;5061953;28;20233;-73
2024/01/20 11:07:11;;;;;;;10.83;6.37;;;;;;;;;;5078245;28;20239;-74
2024/01/20 11:09:38;;;;;;;13.43;6.00;;;;;;;;;;5076320;28;20766;-73
2024/01/20 11:12:08;;;;;;;13.13;5.77;;;;;;;;;;5080025;28;20227;-74
2024/01/20 11:14:34;;;;;;;11.53;5.73;;;;;;;;;;5079350;28;20586;-74
2024/01/20 11:17:10;;;;;;;9.97;5.47;;;;;;;;;;5077257;28;20657;-74
2024/01/20 11:19:36;;;;;;;11.80;5.80;;;;;;;;;;5079585;28;20288;-72
2024/01/20 11:22:02;;;;;;;10.73;5.53;;;;;;;;;;5075871;28;20359;-75
2024/01/20 11:24:42;;;;;;;10.63;5.40;;;;;;;;;;5081635;28;20231;-74
2024/01/20 11:27:08;;;;;;;11.03;5.53;;;;;;;;;;5078365;28;20301;-73
2024/01/20 11:29:34;;;;;;;15.97;6.20;;;;;;;;;;5078596;28;20198;-75
2024/01/20 11:32:00;;;;;;;11.87;5.73;;;;;;;;;;5077992;28;20217;-75
2024/01/20 11:34:26;;;;;;;10.73;5.77;;;;;;;;;;5078765;28;20203;-75
2024/01/20 11:36:53;;;;;;;11.33;5.77;;;;;;;;;;5076962;28;20210;-75
2024/01/20 11:39:19;;;;;;;14.47;5.63;;;;;;;;;;5063516;28;20804;-74
2024/01/20 11:41:46;;;;;;;11.80;6.07;;;;;;;;;;5078584;28;20187;-73
2024/01/20 11:44:12;;;;;;;11.17;5.83;;;;;;;;;;5079493;28;20266;-75
2024/01/20 11:46:38;;;;;;;10.30;5.53;;;;;;;;;;5078950;28;20224;-74
2024/01/20 11:49:04;;;;;;;11.97;5.63;;;;;;;;;;5078092;28;20217;-74
2024/01/20 11:51:31;;;;;;;11.80;5.43;;;;;;;;;;5080740;28;20260;-75
2024/01/20 11:53:57;;;;;;;15.30;6.50;;;;;;;;;;5078357;28;20742;-74
2024/01/20 11:56:23;;;;;;;12.17;6.00;;;;;;;;;;5083246;28;20206;-75
2024/01/20 11:58:49;;;;;;;12.83;6.13;;;;;;;;;;5079013;28;20229;-75
2024/01/20 12:01:16;;;;;;;18.30;5.93;;;;;;;;;;5077725;28;20645;-75
2024/01/20 12:03:42;;;;;;;10.60;5.63;;;;;;;;;;5080752;28;20206;-75
2024/01/20 12:06:08;;;;;;;11.63;5.87;;;;;;;;;;5078308;28;20287;-74
2024/01/20 12:08:36;;;;;;;12.93;6.00;;;;;;;;;;5079220;28;20178;-75
2024/01/20 12:11:02;;;;;;;11.87;5.73;;;;;;;;;;5075735;28;20247;-75
2024/01/20 12:13:32;;;;;;;11.33;5.63;;;;;;;;;;5077961;28;20202;-73
2024/01/20 12:15:59;;;;;;;14.43;6.43;;;;;;;;;;5060203;28;20225;-75
2024/01/20 12:18:25;;;;;;;13.80;6.23;;;;;;;;;;5061866;28;20181;-75
2024/01/20 12:20:51;;;;;;;12.47;5.27;;;;;;;;;;5078076;28;20189;-75
2024/01/20 12:23:18;;;;;;;11.50;4.70;;;;;;;;;;5077612;28;20294;-75
2024/01/20 12:25:44;;;;;;;11.97;5.37;;;;;;;;;;5078908;28;20216;-74
2024/01/20 12:28:10;;;;;;;11.70;5.50;;;;;;;;;;5079017;28;20246;-75
2024/01/20 12:30:36;;;;;;;12.07;5.30;;;;;;;;;;5079545;28;20232;-74
2024/01/20 12:33:02;;;;;;;12.50;4.80;;;;;;;;;;5080754;28;20201;-75
2024/01/20 12:35:28;;;;;;;10.33;4.77;;;;;;;;;;5054851;28;20809;-74
2024/01/20 12:37:56;;;;;;;8.37;4.73;;;;;;;;;;5077932;28;20210;-73
2024/01/20 12:40:24;;;;;;;10.20;5.17;;;;;;;;;;5075359;28;20224;-75
2024/01/20 12:42:50;;;;;;;9.63;4.87;;;;;;;;;;5081168;28;20214;-75
2024/01/20 12:45:16;;;;;;;14.10;5.77;;;;;;;;;;5078655;28;20293;-74
2024/01/20 12:47:42;;;;;;;14.27;5.27;;;;;;;;;;5081293;28;20170;-74
2024/01/20 12:50:09;;;;;;;12.17;4.97;;;;;;;;;;5081707;28;20209;-73
2024/01/20 12:52:36;;;;;;;9.20;4.40;;;;;;;;;;5081059;28;20219;-74
2024/01/20 12:55:02;;;;;;;8.83;4.40;;;;;;;;;;5081099;28;20210;-75
2024/01/20 12:57:28;;;;;;;8.37;4.47;;;;;;;;;;5086295;28;20220;-74
2024/01/20 12:59:54;;;;;;;10.37;4.63;;;;;;;;;;5080362;28;20676;-74
2024/01/20 13:02:20;;;;;;;10.27;5.30;;;;;;;;;;5064662;28;20213;-74
2024/01/20 13:04:46;;;;;;;10.70;4.57;;;;;;;;;;5087120;28;20195;-74
2024/01/20 13:07:12;;;;;;;10.57;4.00;;;;;;;;;;5071284;28;20252;-75
2024/01/20 13:09:38;;;;;;;10.90;5.47;;;;;;;;;;5077818;28;20210;-74
2024/01/20 13:12:04;;;;;;;8.40;4.63;;;;;;;;;;5073937;28;20624;-74
2024/01/20 13:14:31;;;;;;;12.00;5.30;;;;;;;;;;5074897;28;20684;-75
2024/01/20 13:16:57;;;;;;;12.40;4.90;;;;;;;;;;5074873;28;20274;-76
2024/01/20 13:19:23;;;;;;;9.67;4.77;;;;;;;;;;5076538;28;20217;-76
2024/01/20 13:21:49;;;;;;;9.73;5.17;;;;;;;;;;5076902;28;20209;-75
2024/01/20 13:24:15;;;;;;;12.80;4.67;;;;;;;;;;5075755;28;20250;-75
2024/01/20 13:26:41;;;;;;;16.20;5.83;;;;;;;;;;5077606;28;20201;-75
2024/01/20 13:29:08;;;;;;;10.37;4.90;;;;;;;;;;5057315;28;20294;-76
2024/01/20 13:31:35;;;;;;;9.87;4.80;;;;;;;;;;5076343;28;20206;-76
2024/01/20 13:34:01;;;;;;;10.27;4.70;;;;;;;;;;5072702;28;20360;-73
2024/01/20 13:36:27;;;;;;;9.47;4.60;;;;;;;;;;5079770;28;20181;-76
2024/01/20 13:38:54;;;;;;;11.60;4.37;;;;;;;;;;5076770;28;20182;-75
2024/01/20 13:41:21;;;;;;;9.07;4.93;;;;;;;;;;5079503;28;20222;-75
2024/01/20 13:43:47;;;;;;;8.97;4.67;;;;;;;;;;5078125;28;20209;-75
2024/01/20 13:46:13;;;;;;;10.20;4.47;;;;;;;;;;5074882;28;20276;-75
2024/01/20 13:48:39;;;;;;;8.27;4.33;;;;;;;;;;5062242;28;20293;-74
2024/01/20 13:51:05;;;;;;;13.47;5.07;;;;;;;;;;5079639;28;20641;-76
2024/01/20 13:53:31;;;;;;;7.13;4.50;;;;;;;;;;5076371;28;20296;-76
2024/01/20 13:55:57;;;;;;;12.60;4.87;;;;;;;;;;5079769;28;20289;-75
2024/01/20 13:58:23;;;;;;;9.30;4.80;;;;;;;;;;5076384;28;20217;-75
2024/01/20 14:00:49;;;;;;;10.77;5.40;;;;;;;;;;5079997;28;20767;-75
2024/01/20 14:03:15;;;;;;;9.87;4.13;;;;;;;;;;5079171;28;20202;-75
2024/01/20 14:05:43;;;;;;;12.03;5.27;;;;;;;;;;5062662;28;20231;-75
2024/01/20 14:08:09;;;;;;;13.27;4.93;;;;;;;;;;5075486;28;20332;-75
2024/01/20 14:10:36;;;;;;;8.70;4.50;;;;;;;;;;5076496;28;20328;-75
2024/01/20 14:13:04;;;;;;;11.23;4.97;;;;;;;;;;5078418;28;20588;-75
2024/01/20 14:15:30;;;;;;;11.03;4.83;;;;;;;;;;5078747;28;20221;-75
2024/01/20 14:17:56;;;;;;;11.80;4.90;;;;;;;;;;5071703;28;20189;-74
2024/01/20 14:20:22;;;;;;;10.80;4.47;;;;;;;;;;5075274;28;20199;-76
2024/01/20 14:22:48;;;;;;;10.37;5.20;;;;;;;;;;5078303;28;20302;-76
2024/01/20 14:25:16;;;;;;;8.77;4.47;;;;;;;;;;5075551;28;20676;-75